createdAt,value
2022-10-26T00:00:28.617Z,100865.86
2022-10-26T00:03:30.445Z,100870.55
2022-10-26T00:06:18.210Z,100868.08
2022-10-26T00:09:00.995Z,100867.81
2022-10-26T00:11:43.403Z,100865.07
2022-10-26T00:14:27.268Z,100865.89
2022-10-26T00:17:09.666Z,100866.16
2022-10-26T00:19:51.895Z,100869.63
2022-10-26T00:22:34.310Z,100876.52
2022-10-26T00:25:16.589Z,100875.06
2022-10-26T00:27:58.986Z,100879.29
2022-10-26T00:30:41.322Z,100879.04
2022-10-26T00:33:24.147Z,100879.09
2022-10-26T00:36:06.915Z,100883.06
2022-10-26T00:38:54.420Z,100885.84
2022-10-26T00:41:37.690Z,100890.36
2022-10-26T00:44:51.300Z,100890.60
2022-10-26T00:47:58.499Z,100894.91
2022-10-26T00:50:45.126Z,100894.23
2022-10-26T00:53:28.656Z,100892.09
2022-10-26T00:56:11.872Z,100886.54
2022-10-26T00:58:55.967Z,100888.39
2022-10-26T01:01:41.011Z,100888.16
2022-10-26T01:04:23.954Z,100887.90
2022-10-26T01:07:07.846Z,100885.80
2022-10-26T01:09:50.194Z,100885.28
2022-10-26T01:12:32.579Z,100884.09
2022-10-26T01:15:15.194Z,100881.41
2022-10-26T01:18:11.024Z,100868.34
2022-10-26T01:21:14.123Z,100876.65
2022-10-26T01:24:10.853Z,100875.84
2022-10-26T01:27:19.296Z,100875.45
2022-10-26T01:30:27.644Z,100879.24
2022-10-26T01:33:28.759Z,100880.23
2022-10-26T01:36:27.663Z,100886.71
2022-10-26T01:39:39.449Z,100884.82
2022-10-26T01:42:23.765Z,100892.73
2022-10-26T01:45:10.501Z,100892.24
2022-10-26T01:47:54.888Z,100884.75
2022-10-26T01:50:38.323Z,100887.29
2022-10-26T01:53:21.301Z,100883.81
2022-10-26T01:56:03.803Z,100883.99
2022-10-26T01:59:04.427Z,100882.54
2022-10-26T02:01:49.774Z,100883.02
2022-10-26T02:05:09.609Z,100883.58
2022-10-26T02:08:08.777Z,100881.31
2022-10-26T02:11:16.628Z,100881.21
2022-10-26T02:14:09.368Z,100884.25
2022-10-26T02:17:14.372Z,100885.73
2022-10-26T02:20:06.856Z,100882.20
2022-10-26T02:22:52.273Z,100879.95
2022-10-26T02:25:40.778Z,100881.15
2022-10-26T02:28:29.200Z,100885.77
2022-10-26T02:31:13.938Z,100884.21
2022-10-26T02:34:00.275Z,100886.39
2022-10-26T02:36:46.025Z,100889.44
2022-10-26T02:39:32.906Z,100886.74
2022-10-26T02:42:16.377Z,100882.08
2022-10-26T02:45:06.211Z,100887.19
2022-10-26T02:47:49.332Z,100894.36
2022-10-26T02:50:59.244Z,100886.21
2022-10-26T02:53:51.148Z,100886.55
2022-10-26T02:56:47.610Z,100886.41
2022-10-26T02:59:34.934Z,100891.39
2022-10-26T03:02:18.715Z,100896.86
2022-10-26T03:05:16.670Z,100895.36
2022-10-26T03:08:00.701Z,100902.00
2022-10-26T03:10:45.230Z,100905.75
2022-10-26T03:13:27.350Z,100901.63
2022-10-26T03:16:10.152Z,100898.25
2022-10-26T03:18:52.368Z,100899.38
2022-10-26T03:21:35.084Z,100904.73
2022-10-26T03:24:16.878Z,100905.59
2022-10-26T03:27:01.261Z,100909.11
2022-10-26T03:29:45.888Z,100908.32
2022-10-26T03:32:29.669Z,100915.27
2022-10-26T03:35:12.059Z,100915.55
2022-10-26T03:37:55.767Z,100917.55
2022-10-26T03:40:43.298Z,100915.89
2022-10-26T03:43:25.719Z,100917.03
2022-10-26T03:46:07.937Z,100919.17
2022-10-26T03:48:49.982Z,100918.18
2022-10-26T03:51:33.508Z,100917.58
2022-10-26T03:54:15.562Z,100918.73
2022-10-26T03:57:02.666Z,100928.23
2022-10-26T03:59:47.073Z,100927.16
2022-10-26T04:02:30.299Z,100934.65
2022-10-26T04:05:13.093Z,100938.42
2022-10-26T04:08:05.138Z,100938.48
2022-10-26T04:10:48.036Z,100936.86
2022-10-26T04:13:30.333Z,100935.30
2022-10-26T04:16:12.537Z,100933.60
2022-10-26T04:18:54.742Z,100936.97
2022-10-26T04:21:42.058Z,100933.94
2022-10-26T04:24:24.269Z,100925.55
2022-10-26T04:27:06.464Z,100926.81
2022-10-26T04:29:50.605Z,100928.52
2022-10-26T04:32:34.865Z,100925.77
2022-10-26T04:35:17.191Z,100928.67
2022-10-26T04:38:03.733Z,100929.29
2022-10-26T04:40:45.899Z,100931.68
2022-10-26T04:43:30.533Z,100934.06
2022-10-26T04:46:16.767Z,100936.77
2022-10-26T04:48:59.158Z,100939.59
2022-10-26T04:51:44.741Z,100938.35
2022-10-26T04:54:26.917Z,100936.50
2022-10-26T04:57:09.127Z,100934.20
2022-10-26T04:59:51.637Z,100934.48
2022-10-26T05:02:33.937Z,100930.17
2022-10-26T05:05:15.977Z,100928.61
2022-10-26T05:08:01.078Z,100931.59
2022-10-26T05:11:11.171Z,100933.16
2022-10-26T05:13:53.486Z,100935.02
2022-10-26T05:16:35.976Z,100933.20
2022-10-26T05:19:19.106Z,100933.23
2022-10-26T05:22:01.348Z,100936.73
2022-10-26T05:24:47.846Z,100941.88
2022-10-26T05:27:40.565Z,100948.25
2022-10-26T05:30:30.277Z,100948.59
2022-10-26T05:33:14.153Z,100954.55
2022-10-26T05:35:56.412Z,100956.42
2022-10-26T05:38:38.280Z,100960.17
2022-10-26T05:41:20.269Z,100964.59
2022-10-26T05:44:05.593Z,100965.77
2022-10-26T05:46:50.966Z,100963.75
2022-10-26T05:49:33.679Z,100966.55
2022-10-26T05:52:15.753Z,100966.31
2022-10-26T05:54:58.357Z,100966.27
2022-10-26T05:57:41.695Z,100968.55
2022-10-26T06:00:26.861Z,100970.23
2022-10-26T06:03:33.143Z,100970.50
2022-10-26T06:06:17.533Z,100975.66
2022-10-26T06:09:02.872Z,100976.29
2022-10-26T06:11:46.226Z,100984.02
2022-10-26T06:14:28.799Z,100982.14
2022-10-26T06:17:48.181Z,100984.09
2022-10-26T06:20:36.044Z,100989.41
2022-10-26T06:23:43.627Z,100990.09
2022-10-26T06:26:35.071Z,100988.44
2022-10-26T06:29:51.745Z,100994.02
2022-10-26T06:32:35.444Z,100998.33
2022-10-26T06:35:34.665Z,100999.61
2022-10-26T06:38:22.730Z,101002.10
2022-10-26T06:41:12.215Z,101007.29
2022-10-26T06:43:58.230Z,101013.14
2022-10-26T06:46:54.969Z,101017.77
2022-10-26T06:50:02.030Z,101018.45
2022-10-26T06:53:00.101Z,101024.69
2022-10-26T06:55:45.882Z,101022.94
2022-10-26T06:58:35.583Z,101024.52
2022-10-26T07:01:19.126Z,101024.08
2022-10-26T07:04:01.618Z,101025.29
2022-10-26T07:06:46.193Z,101023.36
2022-10-26T07:09:28.978Z,101023.99
2022-10-26T07:12:11.238Z,101025.47
2022-10-26T07:14:56.493Z,101025.40
2022-10-26T07:17:50.143Z,101025.69
2022-10-26T07:20:36.851Z,101032.14
2022-10-26T07:23:19.553Z,101033.77
2022-10-26T07:26:01.868Z,101035.82
2022-10-26T07:28:46.643Z,101035.36
2022-10-26T07:31:28.738Z,101039.46
2022-10-26T07:34:11.187Z,101032.23
2022-10-26T07:36:53.545Z,101041.14
2022-10-26T07:39:35.754Z,101043.52
2022-10-26T07:42:18.068Z,101047.80
2022-10-26T07:45:02.339Z,101051.77
2022-10-26T07:47:46.981Z,101050.73
2022-10-26T07:50:29.788Z,101052.64
2022-10-26T07:53:11.766Z,101054.95
2022-10-26T07:55:55.631Z,101053.96
2022-10-26T07:58:38.232Z,101055.38
2022-10-26T08:01:23.084Z,101054.88
2022-10-26T08:04:05.296Z,101057.61
2022-10-26T08:06:49.393Z,101053.80
2022-10-26T08:09:31.458Z,101060.10
2022-10-26T08:12:18.034Z,101061.50
2022-10-26T08:15:00.181Z,101061.33
2022-10-26T08:17:42.390Z,101067.63
2022-10-26T08:20:24.921Z,101066.03
2022-10-26T08:23:09.011Z,101067.45
2022-10-26T08:25:51.330Z,101060.27
2022-10-26T08:28:34.127Z,101056.29
2022-10-26T08:31:17.097Z,101054.08
2022-10-26T08:34:00.191Z,101059.29
2022-10-26T08:36:42.829Z,101061.16
2022-10-26T08:39:25.104Z,101059.09
2022-10-26T08:42:25.961Z,101057.94
2022-10-26T08:45:36.902Z,101058.53
2022-10-26T08:48:24.757Z,101056.84
2022-10-26T08:51:13.814Z,101052.85
2022-10-26T08:54:01.249Z,101049.22
2022-10-26T08:56:50.692Z,101049.52
2022-10-26T08:59:51.237Z,101046.91
2022-10-26T09:02:33.716Z,101047.50
2022-10-26T09:05:19.377Z,101052.22
2022-10-26T09:08:13.127Z,101055.13
2022-10-26T09:11:29.813Z,101056.79
2022-10-26T09:14:38.602Z,101057.84
2022-10-26T09:17:39.070Z,101063.46
2022-10-26T09:20:40.115Z,101065.78
2022-10-26T09:23:30.719Z,101072.55
2022-10-26T09:26:33.837Z,101070.30
2022-10-26T09:29:16.695Z,101073.92
2022-10-26T09:32:02.115Z,101076.77
2022-10-26T09:34:53.669Z,101071.48
2022-10-26T09:37:41.302Z,101071.38
2022-10-26T09:40:34.654Z,101071.52
2022-10-26T09:43:58.531Z,101068.76
2022-10-26T09:46:59.465Z,101071.64
2022-10-26T09:49:48.884Z,101074.00
2022-10-26T09:52:33.619Z,101078.95
2022-10-26T09:55:16.413Z,101075.38
2022-10-26T09:58:09.880Z,101074.80
2022-10-26T10:00:53.278Z,101074.08
2022-10-26T10:03:35.978Z,101068.94
2022-10-26T10:06:20.673Z,101067.73
2022-10-26T10:09:25.648Z,101077.25
2022-10-26T10:12:20.930Z,101079.52
2022-10-26T10:15:03.153Z,101082.09
2022-10-26T10:17:52.973Z,101080.67
2022-10-26T10:20:35.509Z,101082.98
2022-10-26T10:23:31.576Z,101084.59
2022-10-26T10:26:15.730Z,101085.64
2022-10-26T10:29:01.265Z,101086.31
2022-10-26T10:31:56.974Z,101084.09
2022-10-26T10:34:39.353Z,101087.61
2022-10-26T10:37:27.948Z,101087.64
2022-10-26T10:40:21.881Z,101086.98
2022-10-26T10:43:15.130Z,101091.33
2022-10-26T10:45:59.990Z,101095.84
2022-10-26T10:48:47.827Z,101097.54
2022-10-26T10:51:36.891Z,101097.35
2022-10-26T10:54:27.223Z,101096.36
2022-10-26T10:57:31.156Z,101094.44
2022-10-26T11:00:13.613Z,101097.99
2022-10-26T11:03:09.763Z,101096.08
2022-10-26T11:06:01.225Z,101099.15
2022-10-26T11:08:50.814Z,101096.00
2022-10-26T11:11:45.818Z,101095.29
2022-10-26T11:14:37.752Z,101092.81
2022-10-26T11:17:32.250Z,101089.33
2022-10-26T11:20:19.739Z,101089.48
2022-10-26T11:23:19.251Z,101091.12
2022-10-26T11:26:12.653Z,101095.71
2022-10-26T11:29:11.127Z,101094.61
2022-10-26T11:32:03.027Z,101091.50
2022-10-26T11:34:58.545Z,101090.30
2022-10-26T11:37:48.961Z,101089.00
2022-10-26T11:40:44.283Z,101091.55
2022-10-26T11:43:40.595Z,101093.02
2022-10-26T11:46:30.243Z,101091.17
2022-10-26T11:49:21.618Z,101095.13
2022-10-26T11:52:25.927Z,101089.80
2022-10-26T11:55:11.719Z,101088.48
2022-10-26T11:57:55.069Z,101085.49
2022-10-26T12:00:48.294Z,101086.35
2022-10-26T12:03:37.874Z,101089.30
2022-10-26T12:06:27.882Z,101085.90
2022-10-26T12:09:22.231Z,101084.05
2022-10-26T12:12:15.566Z,101082.17
2022-10-26T12:15:06.833Z,101083.39
2022-10-26T12:18:16.161Z,101085.39
2022-10-26T12:21:03.582Z,101088.80
2022-10-26T12:23:59.717Z,101091.69
2022-10-26T12:26:52.569Z,101092.58
2022-10-26T12:29:51.407Z,101088.41
2022-10-26T12:32:33.655Z,101083.42
2022-10-26T12:35:36.171Z,101082.95
2022-10-26T12:38:24.423Z,101082.90
2022-10-26T12:41:11.089Z,101080.27
2022-10-26T12:43:57.739Z,101079.94
2022-10-26T12:46:41.332Z,101078.25
2022-10-26T12:50:01.760Z,101077.55
2022-10-26T12:52:51.635Z,101071.20
2022-10-26T12:55:46.881Z,101070.45
2022-10-26T12:58:53.814Z,101068.32
2022-10-26T13:01:56.426Z,101072.66
2022-10-26T13:05:01.438Z,101076.06
2022-10-26T13:07:43.909Z,101070.00
2022-10-26T13:10:26.951Z,101066.48
2022-10-26T13:13:21.107Z,101063.56
2022-10-26T13:16:04.372Z,101062.21
2022-10-26T13:18:49.730Z,101057.50
2022-10-26T13:21:32.269Z,101055.89
2022-10-26T13:24:15.048Z,101054.97
2022-10-26T13:27:06.642Z,101054.02
2022-10-26T13:30:04.589Z,101058.42
2022-10-26T13:32:57.141Z,101058.95
2022-10-26T13:35:42.528Z,101058.64
2022-10-26T13:38:30.550Z,101057.63
2022-10-26T13:41:26.376Z,101063.94
2022-10-26T13:44:25.191Z,101061.73
2022-10-26T13:47:18.256Z,101060.91
2022-10-26T13:50:07.585Z,101056.58
2022-10-26T13:52:56.513Z,101056.19
2022-10-26T13:55:54.501Z,101061.52
2022-10-26T13:58:55.136Z,101062.80
2022-10-26T14:01:37.702Z,101058.13
2022-10-26T14:04:28.558Z,101057.06
2022-10-26T14:07:18.346Z,101059.09
2022-10-26T14:10:00.991Z,101063.19
2022-10-26T14:12:43.593Z,101060.42
2022-10-26T14:15:35.496Z,101067.08
2022-10-26T14:18:32.530Z,101058.95
2022-10-26T14:21:21.704Z,101059.43
2022-10-26T14:24:22.416Z,101058.04
2022-10-26T14:27:21.058Z,101060.75
2022-10-26T14:30:29.431Z,101060.35
2022-10-26T14:33:26.020Z,101058.36
2022-10-26T14:36:08.711Z,101058.73
2022-10-26T14:38:58.225Z,101061.80
2022-10-26T14:44:29.720Z,101059.51
2022-10-26T14:47:27.129Z,101064.47
2022-10-26T14:50:23.873Z,101063.16
2022-10-26T14:53:17.297Z,101066.08
2022-10-26T14:56:00.362Z,101067.20
2022-10-26T14:58:42.967Z,101066.48
2022-10-26T15:01:30.278Z,101067.59
2022-10-26T15:04:37.156Z,101066.70
2022-10-26T15:07:20.007Z,101065.89
2022-10-26T15:10:02.424Z,101069.14
2022-10-26T15:12:44.730Z,101070.17
2022-10-26T15:15:29.395Z,101070.38
2022-10-26T15:18:18.728Z,101067.87
2022-10-26T15:21:03.521Z,101071.17
2022-10-26T15:23:45.280Z,101072.13
2022-10-26T15:26:27.800Z,101073.20
2022-10-26T15:29:40.093Z,101071.20
2022-10-26T15:32:33.457Z,101074.27
2022-10-26T15:35:35.629Z,101079.33
2022-10-26T15:38:17.320Z,101086.45
2022-10-26T15:40:59.420Z,101088.49
2022-10-26T15:43:41.213Z,101087.79
2022-10-26T15:46:24.134Z,101090.53
2022-10-26T15:49:07.772Z,101091.72
2022-10-26T15:51:49.768Z,101096.80
2022-10-26T15:54:31.462Z,101098.44
2022-10-26T15:57:16.595Z,101096.89
2022-10-26T16:00:00.985Z,101108.61
2022-10-26T16:02:45.003Z,101111.52
2022-10-26T16:05:26.739Z,101114.11
2022-10-26T16:08:17.747Z,101119.00
2022-10-26T16:11:00.041Z,101119.33
2022-10-26T16:13:41.750Z,101119.02
2022-10-26T16:16:23.726Z,101117.09
2022-10-26T16:19:29.180Z,101120.44
2022-10-26T16:22:09.279Z,101120.20
2022-10-26T16:24:51.122Z,101119.11
2022-10-26T16:27:32.812Z,101123.25
2022-10-26T16:30:14.709Z,101125.56
2022-10-26T16:32:56.401Z,101128.45
2022-10-26T16:35:38.270Z,101130.21
2022-10-26T16:38:19.999Z,101129.56
2022-10-26T16:41:12.852Z,101134.92
2022-10-26T16:43:56.395Z,101134.33
2022-10-26T16:46:38.064Z,101134.67
2022-10-26T16:49:19.857Z,101135.04
2022-10-26T16:52:01.547Z,101135.10
2022-10-26T16:54:43.648Z,101138.67
2022-10-26T16:57:28.410Z,101134.67
2022-10-26T17:00:10.670Z,101133.11
2022-10-26T17:02:52.407Z,101130.56
2022-10-26T17:05:34.100Z,101136.98
2022-10-26T17:08:15.790Z,101143.14
2022-10-26T17:11:05.160Z,101142.50
2022-10-26T17:13:47.903Z,101146.00
2022-10-26T17:16:29.774Z,101148.38
2022-10-26T17:19:11.973Z,101152.50
2022-10-26T17:21:53.766Z,101154.52
2022-10-26T17:24:36.482Z,101158.42
2022-10-26T17:27:19.606Z,101158.36
2022-10-26T17:30:01.815Z,101160.34
2022-10-26T17:32:43.602Z,101160.35
2022-10-26T17:35:25.702Z,101162.58
2022-10-26T17:38:07.437Z,101163.64
2022-10-26T17:40:49.904Z,101164.34
2022-10-26T17:43:33.745Z,101163.56
2022-10-26T17:46:21.244Z,101166.23
2022-10-26T17:49:04.476Z,101171.43
2022-10-26T17:51:49.058Z,101174.88
2022-10-26T17:54:31.674Z,101178.95
2022-10-26T17:57:13.890Z,101182.55
2022-10-26T17:59:56.075Z,101185.20
2022-10-26T18:02:38.008Z,101184.54
2022-10-26T18:05:20.277Z,101189.23
2022-10-26T18:08:01.967Z,101192.30
2022-10-26T18:10:51.546Z,101194.02
2022-10-26T18:13:35.078Z,101195.50
2022-10-26T18:16:23.015Z,101193.49
2022-10-26T18:19:05.526Z,101197.52
2022-10-26T18:21:47.318Z,101195.04
2022-10-26T18:24:30.403Z,101194.73
2022-10-26T18:27:12.564Z,101196.52
2022-10-26T18:29:54.556Z,101199.19
2022-10-26T18:32:36.642Z,101198.88
2022-10-26T18:38:53.888Z,101197.12
2022-10-26T18:41:36.295Z,101196.30
2022-10-26T18:44:20.341Z,101201.48
2022-10-26T18:47:02.440Z,101207.99
2022-10-26T18:49:45.489Z,101210.70
2022-10-26T18:53:41.581Z,101220.42
2022-10-26T18:56:26.700Z,101214.94
2022-10-26T18:59:35.703Z,101214.46
2022-10-26T19:02:17.702Z,101214.77
2022-10-26T19:04:59.390Z,101214.95
2022-10-26T19:08:10.128Z,101216.55
2022-10-26T19:10:52.063Z,101215.30
2022-10-26T19:13:33.954Z,101217.10
2022-10-26T19:19:40.550Z,101225.00
2022-10-26T19:22:22.553Z,101235.64
2022-10-26T19:25:09.236Z,101245.80
2022-10-26T19:27:52.677Z,101250.45
2022-10-26T19:30:38.782Z,101252.05
2022-10-26T19:33:20.781Z,101258.04
2022-10-26T19:36:41.067Z,101260.40
2022-10-26T19:39:27.886Z,101259.36
2022-10-26T19:42:09.745Z,101261.45
2022-10-26T19:44:53.421Z,101265.52
2022-10-26T19:47:36.561Z,101268.08
2022-10-26T19:50:19.790Z,101272.11
2022-10-26T19:53:04.547Z,101274.97
2022-10-26T19:55:47.453Z,101275.63
2022-10-26T19:58:31.443Z,101274.05
2022-10-26T20:01:15.183Z,101277.98
2022-10-26T20:03:58.363Z,101277.60
2022-10-26T20:06:40.159Z,101280.04
2022-10-26T20:09:21.952Z,101277.67
2022-10-26T20:12:03.936Z,101283.45
2022-10-26T20:14:45.741Z,101289.94
2022-10-26T20:17:28.536Z,101285.81
2022-10-26T20:20:12.475Z,101281.57
2022-10-26T20:22:54.603Z,101283.30
2022-10-26T20:25:37.728Z,101294.03
2022-10-26T20:28:23.514Z,101292.38
2022-10-26T20:31:05.409Z,101294.14
2022-10-26T20:33:52.775Z,101296.59
2022-10-26T20:36:38.520Z,101299.52
2022-10-26T20:39:24.502Z,101293.59
2022-10-26T20:42:18.364Z,101294.05
2022-10-26T20:45:09.705Z,101292.42
2022-10-26T20:47:51.967Z,101289.65
2022-10-26T20:50:34.422Z,101300.02
2022-10-26T20:53:28.192Z,101300.21
2022-10-26T20:56:26.518Z,101301.61
2022-10-26T20:59:41.443Z,101299.31
2022-10-26T21:02:28.962Z,101299.35
2022-10-26T21:05:13.734Z,101297.51
2022-10-26T21:08:00.207Z,101300.61
2022-10-26T21:10:44.549Z,101302.77
2022-10-26T21:13:29.477Z,101302.72
2022-10-26T21:16:14.698Z,101302.38
2022-10-26T21:19:00.225Z,101299.55
2022-10-26T21:21:42.824Z,101294.38
2022-10-26T21:24:24.558Z,101295.81
2022-10-26T21:27:08.755Z,101298.65
2022-10-26T21:29:53.372Z,101301.67
2022-10-26T21:32:35.525Z,101300.48
2022-10-26T21:35:19.059Z,101295.30
2022-10-26T21:38:03.684Z,101297.55
2022-10-26T21:40:47.341Z,101302.30
2022-10-26T21:43:30.380Z,101309.54
2022-10-26T21:46:12.838Z,101310.61
2022-10-26T21:48:54.579Z,101310.33
2022-10-26T21:51:36.374Z,101308.51
2022-10-26T21:54:18.066Z,101306.87
2022-10-26T21:56:59.756Z,101309.47
2022-10-26T21:59:41.548Z,101312.71
2022-10-26T22:02:23.284Z,101306.42
2022-10-26T22:05:05.841Z,101307.27
2022-10-26T22:07:47.663Z,101310.16
2022-10-26T22:10:29.643Z,101308.48
2022-10-26T22:13:11.287Z,101308.59
2022-10-26T22:16:03.062Z,101307.14
2022-10-26T22:18:45.573Z,101303.86
2022-10-26T22:21:28.285Z,101303.48
2022-10-26T22:24:11.355Z,101311.34
2022-10-26T22:26:53.714Z,101311.48
2022-10-26T22:29:35.508Z,101311.30
2022-10-26T22:32:17.813Z,101310.01
2022-10-26T22:35:10.937Z,101308.34
2022-10-26T22:37:59.832Z,101303.15
2022-10-26T22:40:41.524Z,101304.52
2022-10-26T22:43:29.931Z,101304.01
2022-10-26T22:46:16.069Z,101305.67
2022-10-26T22:49:00.651Z,101311.06
2022-10-26T22:51:42.316Z,101315.70
2022-10-26T22:54:23.961Z,101315.38
2022-10-26T22:57:05.697Z,101315.63
2022-10-26T22:59:47.351Z,101314.29
2022-10-26T23:02:29.013Z,101318.85
2022-10-26T23:05:10.873Z,101319.82
2022-10-26T23:07:52.900Z,101323.93
2022-10-26T23:10:34.874Z,101332.45
2022-10-26T23:13:16.560Z,101334.11
2022-10-26T23:16:05.623Z,101339.10
2022-10-26T23:18:48.747Z,101341.73
2022-10-26T23:21:30.541Z,101345.91
2022-10-26T23:24:12.233Z,101347.15
2022-10-26T23:26:53.925Z,101346.33
2022-10-26T23:29:35.636Z,101346.35
2022-10-26T23:32:17.633Z,101345.90
2022-10-26T23:34:59.302Z,101341.25
2022-10-26T23:37:40.995Z,101339.46
2022-10-26T23:40:22.786Z,101336.06
2022-10-26T23:43:04.478Z,101341.06
2022-10-26T23:45:46.988Z,101345.13
2022-10-26T23:48:29.497Z,101341.13
2022-10-26T23:51:11.396Z,101340.02
2022-10-26T23:53:54.210Z,101342.27
2022-10-26T23:56:35.903Z,101341.89
2022-10-26T23:59:19.642Z,101342.73
